Time;durP1;ratioP1;P1;durP2;ratioP2;P2;SDS_P1;SDS_P2;PMS_P1;PMS_P2;Temp;Humidity;BMP_temperature;BMP_pressure;BME280_temperature;BME280_humidity;BME280_pressure;Samples;Min_cycle;Max_cycle;Signal;HPM_P1;HPM_P2
2021/07/04 00:03:44;;;;;;;18.53;8.20;;;16.10;99.90;;;;;;20989367;28;20032;-78
2021/07/04 00:13:45;;;;;;;17.90;8.10;;;16.10;99.90;;;;;;21012529;28;20068;-78
2021/07/04 00:23:46;;;;;;;10.37;6.97;;;16.10;99.90;;;;;;21022843;28;20503;-78
2021/07/04 00:33:46;;;;;;;9.00;6.53;;;16.10;99.90;;;;;;21022392;28;20028;-79
2021/07/04 00:43:48;;;;;;;10.20;5.77;;;16.10;99.90;;;;;;21023931;28;20029;-78
2021/07/04 00:53:50;;;;;;;9.40;5.65;;;16.10;99.90;;;;;;21005540;28;20411;-78
2021/07/04 01:03:51;;;;;;;10.68;5.00;;;16.10;99.90;;;;;;21025055;28;20441;-79
2021/07/04 01:13:53;;;;;;;13.07;7.17;;;16.10;99.90;;;;;;21024778;28;20037;-78
2021/07/04 01:23:54;;;;;;;9.73;6.10;;;16.10;99.90;;;;;;21002083;28;20278;-78
2021/07/04 01:33:56;;;;;;;;;;;16.10;99.90;;;;;;21007820;28;20483;-78
2021/07/04 01:44:04;;;;;;;9.05;5.78;;;16.20;99.90;;;;;;20993542;28;19913;-78
2021/07/04 01:54:07;;;;;;;13.68;6.47;;;16.00;99.90;;;;;;21011496;28;20456;-78
2021/07/04 02:04:14;;;;;;;8.75;5.72;;;16.00;99.90;;;;;;20988471;28;20056;-78
2021/07/04 02:14:18;;;;;;;11.82;5.97;;;15.90;99.90;;;;;;20987916;28;20555;-77
2021/07/04 02:24:36;;;;;;;13.88;6.22;;;16.00;99.90;;;;;;20986061;28;20403;-78
2021/07/04 02:34:57;;;;;;;7.80;5.50;;;16.00;99.90;;;;;;20986134;28;20503;-77
2021/07/04 02:45:00;;;;;;;7.93;5.93;;;15.80;99.90;;;;;;20967583;28;20028;-78
2021/07/04 02:55:03;;;;;;;12.00;6.07;;;15.90;99.90;;;;;;20983227;28;20286;-78
2021/07/04 03:05:10;;;;;;;7.75;5.13;;;16.00;99.90;;;;;;20981069;28;20192;-77
2021/07/04 03:15:14;;;;;;;12.88;6.70;;;15.80;99.90;;;;;;20980117;28;20074;-78
2021/07/04 03:25:19;;;;;;;10.57;5.93;;;15.30;99.90;;;;;;20977343;28;20025;-78
2021/07/04 03:35:21;;;;;;;12.23;6.07;;;15.20;99.90;;;;;;20984672;28;20029;-78
2021/07/04 03:45:26;;;;;;;16.92;10.02;;;15.00;99.90;;;;;;20985309;28;20036;-78
2021/07/04 03:55:27;;;;;;;15.57;8.47;;;15.00;99.90;;;;;;20998537;28;20034;-78
2021/07/04 04:05:31;;;;;;;11.30;6.78;;;15.30;99.90;;;;;;20975994;28;20043;-77
2021/07/04 04:15:33;;;;;;;12.45;7.75;;;15.30;99.90;;;;;;20959755;28;20039;-78
2021/07/04 04:25:35;;;;;;;10.52;6.55;;;15.10;99.90;;;;;;20977968;28;20033;-77
2021/07/04 04:35:38;;;;;;;12.73;7.53;;;15.20;99.90;;;;;;20982535;28;20111;-79
2021/07/04 04:45:39;;;;;;;12.07;7.50;;;15.40;99.90;;;;;;21009349;28;20383;-79
2021/07/04 04:55:40;;;;;;;18.90;9.53;;;15.70;99.90;;;;;;20993032;28;20038;-78
2021/07/04 05:05:42;;;;;;;17.38;10.65;;;16.10;99.90;;;;;;20992029;28;20570;-78
2021/07/04 05:15:43;;;;;;;21.30;10.30;;;16.10;99.90;;;;;;21010530;28;20111;-78
2021/07/04 05:25:44;;;;;;;16.47;10.50;;;16.10;99.90;;;;;;21017917;28;20097;-78
2021/07/04 05:35:45;;;;;;;14.93;10.10;;;16.50;99.90;;;;;;20999671;28;20029;-78
2021/07/04 05:45:46;;;;;;;23.17;10.57;;;16.80;99.90;;;;;;20999086;28;20311;-78
2021/07/04 05:55:46;;;;;;;26.47;11.17;;;16.70;99.90;;;;;;20999412;28;20039;-78
2021/07/04 06:05:47;;;;;;;17.53;9.60;;;16.80;99.90;;;;;;21000897;28;20060;-78
2021/07/04 06:15:48;;;;;;;15.80;8.53;;;17.00;99.90;;;;;;21015729;28;20039;-78
2021/07/04 06:25:49;;;;;;;18.17;9.67;;;17.20;99.90;;;;;;20990892;28;20056;-78
2021/07/04 06:35:50;;;;;;;13.57;8.00;;;17.60;99.90;;;;;;21001162;28;20107;-77
2021/07/04 06:45:52;;;;;;;9.47;5.87;;;18.40;99.90;;;;;;21004953;28;20036;-79
2021/07/04 06:55:53;;;;;;;8.82;5.03;;;19.30;99.90;;;;;;21000489;28;20042;-78
2021/07/04 07:05:54;;;;;;;7.67;5.47;;;19.80;99.90;;;;;;21000830;28;20491;-77
2021/07/04 07:15:55;;;;;;;8.90;4.77;;;19.90;99.90;;;;;;20993104;28;20119;-77
2021/07/04 07:25:56;;;;;;;10.97;5.17;;;20.20;99.90;;;;;;20977486;28;20099;-76
2021/07/04 07:35:57;;;;;;;6.00;4.60;;;19.50;99.90;;;;;;21008844;28;20486;-78
2021/07/04 07:45:58;;;;;;;8.97;4.23;;;20.10;99.90;;;;;;21010206;28;20029;-78
2021/07/04 07:55:59;;;;;;;8.37;5.47;;;20.00;99.90;;;;;;21018837;28;20088;-78
2021/07/04 08:06:09;;;;;;;9.02;5.00;;;20.00;99.90;;;;;;21005927;28;20040;-79
2021/07/04 08:16:10;;;;;;;43.63;15.32;;;20.20;99.90;;;;;;21031973;28;20102;-78
2021/07/04 08:26:11;;;;;;;8.07;5.33;;;19.40;99.90;;;;;;21012275;28;20037;-78
2021/07/04 08:36:12;;;;;;;27.97;12.43;;;20.20;99.90;;;;;;21032313;28;20044;-79
2021/07/04 08:46:13;;;;;;;9.60;5.20;;;20.30;99.90;;;;;;20995270;28;20075;-77
2021/07/04 08:56:14;;;;;;;6.83;4.77;;;20.10;99.90;;;;;;21009262;28;20114;-77
2021/07/04 09:06:44;;;;;;;5.77;4.40;;;20.20;99.90;;;;;;21009930;28;20777;-78
2021/07/04 09:16:48;;;;;;;8.93;4.85;;;20.30;99.90;;;;;;21017514;28;20055;-77
2021/07/04 09:26:50;;;;;;;6.35;4.28;;;20.50;99.90;;;;;;20987724;28;20048;-77
2021/07/04 09:36:55;;;;;;;8.00;4.20;;;20.90;99.90;;;;;;20983340;28;20247;-77
2021/07/04 09:47:12;;;;;;;6.88;4.57;;;21.10;99.90;;;;;;20972208;28;20047;-77
2021/07/04 09:57:13;;;;;;;7.70;4.55;;;21.30;99.90;;;;;;20985982;28;20037;-77
2021/07/04 10:07:14;;;;;;;5.40;4.00;;;21.70;99.90;;;;;;20980545;28;20135;-77
2021/07/04 10:17:15;;;;;;;11.90;3.83;;;22.10;99.90;;;;;;20977611;28;20036;-77
2021/07/04 10:27:16;;;;;;;;;;;22.40;99.90;;;;;;20980623;28;20032;-77
2021/07/04 10:37:32;;;;;;;5.25;3.50;;;23.20;99.90;;;;;;20981450;28;20334;-77
2021/07/04 10:47:35;;;;;;;4.35;3.03;;;23.80;99.90;;;;;;21003604;28;20395;-80
2021/07/04 10:57:53;;;;;;;4.30;3.13;;;23.20;99.90;;;;;;21012913;28;20032;-79
2021/07/04 11:07:54;;;;;;;6.25;2.78;;;22.50;99.90;;;;;;20968603;28;20040;-80
2021/07/04 11:17:58;;;;;;;7.63;3.13;;;23.00;99.90;;;;;;20990531;28;20115;-80
2021/07/04 11:28:18;;;;;;;4.68;3.60;;;23.90;99.90;;;;;;21007169;28;20044;-78
2021/07/04 11:38:20;;;;;;;3.72;3.03;;;23.00;99.90;;;;;;20989923;28;20036;-80
2021/07/04 11:48:43;;;;;;;5.40;2.67;;;22.90;99.90;;;;;;21010417;28;20090;-80
2021/07/04 11:58:44;;;;;;;8.80;3.35;;;23.20;99.90;;;;;;21006173;28;20044;-79
2021/07/04 12:08:55;;;;;;;4.00;3.10;;;23.00;99.90;;;;;;21021657;28;20052;-80
2021/07/04 12:18:56;;;;;;;4.00;3.08;;;22.90;99.90;;;;;;20956285;28;20162;-79
2021/07/04 12:29:03;;;;;;;7.83;2.90;;;22.90;99.90;;;;;;21022652;28;20032;-79
2021/07/04 12:39:09;;;;;;;6.70;3.22;;;22.40;99.90;;;;;;21010973;28;20028;-79
2021/07/04 12:49:13;;;;;;;3.10;2.65;;;22.30;99.90;;;;;;20980199;28;20082;-79
2021/07/04 12:59:27;;;;;;;3.75;2.90;;;22.40;99.90;;;;;;20975460;28;20028;-79
2021/07/04 13:09:39;;;;;;;4.90;2.88;;;22.60;99.90;;;;;;20975964;28;20029;-79
2021/07/04 13:19:41;;;;;;;3.70;2.80;;;22.70;99.90;;;;;;20990699;28;20028;-79
2021/07/04 13:29:42;;;;;;;;;;;22.70;99.90;;;;;;20991647;28;20311;-79
2021/07/04 13:39:58;;;;;;;1.85;0.88;;;20.00;99.90;;;;;;21013687;28;20007;-80
2021/07/04 13:49:59;;;;;;;2.53;0.90;;;20.20;99.90;;;;;;20995451;28;20029;-80
2021/07/04 14:00:05;;;;;;;2.17;0.65;;;20.10;99.90;;;;;;20987268;28;20051;-79
2021/07/04 14:10:08;;;;;;;1.35;0.77;;;20.20;99.90;;;;;;20992714;28;20051;-79
2021/07/04 14:20:12;;;;;;;0.93;0.63;;;20.40;99.90;;;;;;20980027;28;20063;-78
2021/07/04 14:30:16;;;;;;;1.27;0.82;;;20.80;99.90;;;;;;21001698;28;20041;-80
2021/07/04 14:40:19;;;;;;;2.03;1.02;;;19.60;99.90;;;;;;20982374;28;20056;-79
2021/07/04 14:50:21;;;;;;;1.75;1.13;;;18.30;99.90;;;;;;20987409;28;20036;-79
2021/07/04 15:00:23;;;;;;;1.75;0.88;;;17.90;99.90;;;;;;20989862;28;20098;-79
2021/07/04 15:10:24;;;;;;;1.55;0.82;;;17.30;99.90;;;;;;20980108;28;20036;-80
2021/07/04 15:20:26;;;;;;;1.83;0.98;;;17.10;99.90;;;;;;20962902;28;20679;-79
2021/07/04 15:30:28;;;;;;;4.07;1.40;;;16.50;99.90;;;;;;20963753;28;20041;-79
2021/07/04 15:40:29;;;;;;;2.13;0.98;;;16.30;99.90;;;;;;20956408;28;20090;-79
2021/07/04 15:50:31;;;;;;;1.53;1.00;;;16.10;99.90;;;;;;20973675;28;20032;-80
2021/07/04 16:00:33;;;;;;;1.20;0.80;;;16.30;99.90;;;;;;20954854;28;20475;-79
2021/07/04 16:10:34;;;;;;;1.70;0.90;;;16.30;99.90;;;;;;20978488;28;20060;-78
2021/07/04 16:20:35;;;;;;;1.30;0.90;;;16.10;99.90;;;;;;20948020;28;20130;-79
2021/07/04 16:30:36;;;;;;;2.13;1.10;;;16.10;99.90;;;;;;20954604;28;20036;-80
2021/07/04 16:40:37;;;;;;;0.90;0.73;;;16.50;99.90;;;;;;20968764;28;20035;-77
2021/07/04 16:50:38;;;;;;;4.40;0.90;;;17.20;99.90;;;;;;20987396;28;20403;-77
2021/07/04 17:00:39;;;;;;;1.47;0.90;;;17.30;99.90;;;;;;20984007;28;20033;-78
2021/07/04 17:10:40;;;;;;;2.10;1.13;;;17.10;99.90;;;;;;20982911;28;20055;-78
2021/07/04 17:20:41;;;;;;;1.03;0.70;;;17.00;99.90;;;;;;20982773;28;20173;-78
2021/07/04 17:30:42;;;;;;;1.83;0.80;;;17.40;99.90;;;;;;20980959;28;20119;-79
2021/07/04 17:40:43;;;;;;;1.97;0.73;;;17.60;99.90;;;;;;20982135;28;20055;-78
2021/07/04 17:50:44;;;;;;;2.03;1.23;;;17.50;99.90;;;;;;20977206;28;20036;-78
2021/07/04 18:00:45;;;;;;;1.50;0.80;;;17.00;99.90;;;;;;20959216;28;20028;-79
2021/07/04 18:10:49;;;;;;;1.63;1.00;;;17.00;99.90;;;;;;20956678;28;20123;-78
2021/07/04 18:20:50;;;;;;;1.25;0.65;;;19.10;99.90;;;;;;20982401;28;20062;-79
2021/07/04 18:30:53;;;;;;;1.17;0.60;;;20.70;99.90;;;;;;20992821;28;20054;-79
2021/07/04 18:40:55;;;;;;;1.33;0.60;;;21.10;99.90;;;;;;20984817;28;20044;-79
2021/07/04 18:50:57;;;;;;;1.17;0.70;;;19.50;99.90;;;;;;21025130;28;20044;-79
2021/07/04 19:00:58;;;;;;;4.47;0.90;;;17.70;99.90;;;;;;21028261;28;20035;-79
2021/07/04 19:10:59;;;;;;;2.83;1.00;;;17.10;99.90;;;;;;21017472;28;20043;-80
2021/07/04 19:21:00;;;;;;;1.47;0.63;;;16.50;99.90;;;;;;20981628;28;20107;-80
2021/07/04 19:31:02;;;;;;;2.37;1.00;;;16.20;99.90;;;;;;20984520;28;20040;-80
2021/07/04 19:41:04;;;;;;;1.73;0.90;;;15.80;99.90;;;;;;20998914;28;20072;-82
2021/07/04 19:51:05;;;;;;;2.03;1.10;;;15.70;99.90;;;;;;21005383;28;20028;-80
2021/07/04 20:01:06;;;;;;;1.43;0.80;;;15.60;99.90;;;;;;21016906;28;20040;-81
2021/07/04 20:11:07;;;;;;;0.97;0.87;;;15.50;99.90;;;;;;21007535;28;20044;-80
2021/07/04 20:21:08;;;;;;;2.27;1.23;;;15.70;99.90;;;;;;21026657;28;20135;-79
2021/07/04 20:31:09;;;;;;;1.00;0.80;;;15.80;99.90;;;;;;21016162;28;20094;-81
2021/07/04 20:41:10;;;;;;;3.00;1.50;;;16.00;99.90;;;;;;21015202;28;20036;-81
2021/07/04 20:51:15;;;;;;;2.70;1.33;;;15.90;99.90;;;;;;21031756;28;20059;-79
2021/07/04 21:01:18;;;;;;;4.32;1.00;;;15.80;99.90;;;;;;21015589;28;20036;-81
2021/07/04 21:11:22;;;;;;;1.90;1.02;;;16.00;99.90;;;;;;21020026;28;20048;-79
2021/07/04 21:21:25;;;;;;;2.75;1.00;;;16.30;99.90;;;;;;21009465;28;20040;-79
2021/07/04 21:31:26;;;;;;;2.15;0.60;;;16.30;99.90;;;;;;21033430;28;20031;-81
2021/07/04 21:41:27;;;;;;;1.90;1.00;;;16.20;99.90;;;;;;21019848;28;20028;-80
2021/07/04 21:51:28;;;;;;;14.70;1.27;;;16.20;99.90;;;;;;21011787;28;20036;-81
2021/07/04 22:01:29;;;;;;;0.87;0.77;;;16.00;99.90;;;;;;21039665;28;20094;-79
2021/07/04 22:11:30;;;;;;;3.80;0.90;;;16.00;99.90;;;;;;21024763;28;20380;-80
2021/07/04 22:21:31;;;;;;;2.87;0.70;;;15.70;99.90;;;;;;21021861;28;20021;-80
2021/07/04 22:31:33;;;;;;;2.73;0.90;;;15.80;99.90;;;;;;21032417;28;20084;-80
2021/07/04 22:41:34;;;;;;;2.53;0.90;;;15.70;99.90;;;;;;21030061;28;20032;-79
2021/07/04 22:51:35;;;;;;;2.57;1.10;;;15.90;99.90;;;;;;21036936;28;20550;-80
2021/07/04 23:01:36;;;;;;;3.30;1.17;;;15.60;99.90;;;;;;21037451;28;20039;-80
2021/07/04 23:11:36;;;;;;;5.10;1.63;;;15.50;99.90;;;;;;21019208;28;20025;-77
2021/07/04 23:21:37;;;;;;;6.13;2.57;;;15.30;99.90;;;;;;20991567;28;20074;-77
2021/07/04 23:31:38;;;;;;;5.30;2.70;;;14.90;99.90;;;;;;20990888;28;20048;-77
2021/07/04 23:41:39;;;;;;;5.53;2.23;;;14.90;99.90;;;;;;20990601;28;20039;-77
2021/07/04 23:51:40;;;;;;;7.60;3.23;;;14.90;99.90;;;;;;21015508;28;20028;-77
